Time;durP1;ratioP1;P1;durP2;ratioP2;P2;SDS_P1;SDS_P2;PMS_P1;PMS_P2;Temp;Humidity;BMP_temperature;BMP_pressure;BME280_temperature;BME280_humidity;BME280_pressure;Samples;Min_cycle;Max_cycle;Signal;HPM_P1;HPM_P2
2021/04/26 00:04:47;;;;;;;1.83;1.38;;;11.20;37.30;;;;;;10187198;27;20045;-62
2021/04/26 00:09:38;;;;;;;3.35;1.40;;;11.20;37.50;;;;;;10191595;27;20064;-61
2021/04/26 00:14:29;;;;;;;1.00;0.90;;;11.10;37.70;;;;;;10159286;28;20559;-61
2021/04/26 00:19:20;;;;;;;3.55;1.10;;;11.00;37.90;;;;;;10184623;28;20024;-56
2021/04/26 00:24:10;;;;;;;3.15;1.73;;;11.00;38.00;;;;;;10178171;28;20488;-60
2021/04/26 00:29:01;;;;;;;3.22;1.30;;;10.80;38.50;;;;;;10180591;28;20720;-56
2021/04/26 00:33:52;;;;;;;2.30;1.30;;;10.80;38.40;;;;;;10185276;28;20051;-60
2021/04/26 00:38:43;;;;;;;9.63;1.45;;;10.80;38.80;;;;;;10181900;28;20031;-62
2021/04/26 00:43:34;;;;;;;1.73;1.00;;;10.80;38.50;;;;;;10163298;27;20687;-56
2021/04/26 00:48:24;;;;;;;4.55;1.33;;;10.70;38.60;;;;;;10200911;27;20032;-60
2021/04/26 00:53:16;;;;;;;3.20;1.30;;;10.80;38.40;;;;;;10192655;27;20042;-60
2021/04/26 00:58:07;;;;;;;3.80;1.10;;;10.60;39.10;;;;;;10202856;27;20058;-60
2021/04/26 01:02:58;;;;;;;2.13;1.30;;;10.50;39.10;;;;;;10192553;27;20027;-59
2021/04/26 01:07:50;;;;;;;2.38;1.40;;;10.60;39.20;;;;;;10197986;27;20066;-57
2021/04/26 01:12:59;;;;;;;0.93;0.80;;;10.40;39.40;;;;;;10197128;27;20039;-61
2021/04/26 01:18:03;;;;;;;2.47;1.10;;;10.30;40.90;;;;;;10192870;27;20057;-61
2021/04/26 01:23:42;;;;;;;2.92;1.48;;;10.50;38.70;;;;;;10200566;27;21390;-57
2021/04/26 01:28:46;;;;;;;1.45;1.35;;;10.30;40.30;;;;;;10183495;27;20119;-55
2021/04/26 01:33:41;;;;;;;1.67;1.23;;;10.30;40.50;;;;;;10198265;27;20296;-57
2021/04/26 01:38:38;;;;;;;1.85;1.00;;;10.20;40.00;;;;;;10204696;27;20035;-53
2021/04/26 01:43:30;;;;;;;4.80;1.50;;;10.20;40.00;;;;;;10197692;27;20031;-57
2021/04/26 01:48:25;;;;;;;1.30;1.10;;;10.20;39.70;;;;;;10199555;27;20087;-55
2021/04/26 01:53:17;;;;;;;1.40;1.05;;;10.20;39.70;;;;;;10192377;27;20035;-56
2021/04/26 01:58:08;;;;;;;1.23;0.98;;;10.20;39.40;;;;;;10200564;27;20027;-59
2021/04/26 02:03:00;;;;;;;1.23;0.90;;;10.10;39.80;;;;;;10194876;27;20046;-58
2021/04/26 02:07:52;;;;;;;1.90;1.77;;;10.00;40.50;;;;;;10179362;27;20034;-59
2021/04/26 02:12:44;;;;;;;1.48;1.02;;;9.80;40.90;;;;;;10194044;27;20038;-58
2021/04/26 02:17:35;;;;;;;4.32;1.20;;;9.80;40.60;;;;;;10193064;27;20063;-59
2021/04/26 02:22:26;;;;;;;2.08;0.98;;;9.70;41.20;;;;;;10195183;27;20070;-58
2021/04/26 02:27:16;;;;;;;3.78;2.22;;;9.70;40.70;;;;;;10197212;27;20123;-56
2021/04/26 02:32:12;;;;;;;2.05;1.15;;;9.60;41.60;;;;;;10197839;27;20060;-59
2021/04/26 02:37:24;;;;;;;4.85;1.35;;;9.50;41.90;;;;;;10191378;27;20089;-54
2021/04/26 02:42:17;;;;;;;1.63;1.00;;;9.40;42.60;;;;;;10191010;27;20218;-57
2021/04/26 02:47:10;;;;;;;2.13;1.13;;;9.30;41.80;;;;;;10185703;27;20127;-58
2021/04/26 02:52:03;;;;;;;2.55;1.20;;;9.30;42.30;;;;;;10184036;27;20047;-58
2021/04/26 02:56:57;;;;;;;1.50;0.98;;;9.10;42.40;;;;;;10193511;27;20023;-57
2021/04/26 03:01:49;;;;;;;3.33;1.00;;;9.00;42.60;;;;;;10193359;27;20066;-57
2021/04/26 03:06:40;;;;;;;3.00;1.33;;;9.10;42.60;;;;;;10180898;27;20027;-56
2021/04/26 03:11:31;;;;;;;1.40;0.90;;;8.90;43.60;;;;;;10189306;27;20054;-57
2021/04/26 03:16:23;;;;;;;2.63;1.27;;;9.00;43.20;;;;;;10190838;27;20187;-58
2021/04/26 03:21:14;;;;;;;4.90;1.00;;;8.90;43.20;;;;;;10193368;27;20081;-57
2021/04/26 03:26:06;;;;;;;3.03;1.60;;;8.80;44.00;;;;;;10192990;27;20028;-60
2021/04/26 03:30:59;;;;;;;1.63;1.05;;;8.60;44.60;;;;;;10176435;27;20414;-57
2021/04/26 03:35:53;;;;;;;5.53;1.52;;;8.60;44.70;;;;;;10206362;27;20744;-56
2021/04/26 03:40:44;;;;;;;4.05;1.52;;;8.50;45.30;;;;;;10186376;27;20038;-54
2021/04/26 03:45:35;;;;;;;2.92;2.08;;;8.40;45.90;;;;;;10202994;27;20371;-55
2021/04/26 03:50:27;;;;;;;4.97;1.35;;;8.20;46.70;;;;;;10169640;27;20031;-59
2021/04/26 03:55:21;;;;;;;3.78;1.30;;;8.10;46.80;;;;;;10194479;27;20050;-60
2021/04/26 04:00:13;;;;;;;1.60;1.50;;;8.10;47.10;;;;;;10188449;27;20039;-59
2021/04/26 04:05:06;;;;;;;1.90;1.35;;;8.10;47.60;;;;;;10190564;27;20019;-59
2021/04/26 04:09:57;;;;;;;2.45;1.95;;;8.00;47.50;;;;;;10190176;27;20492;-53
2021/04/26 04:14:47;;;;;;;4.68;1.80;;;8.00;47.70;;;;;;10189655;27;20039;-52
2021/04/26 04:19:38;;;;;;;2.38;1.60;;;8.00;47.80;;;;;;10190100;28;20035;-55
2021/04/26 04:24:29;;;;;;;2.45;1.95;;;7.90;48.00;;;;;;10185839;28;20024;-53
2021/04/26 04:29:20;;;;;;;2.50;1.50;;;7.80;48.60;;;;;;10194672;28;20031;-57
2021/04/26 04:34:11;;;;;;;2.58;1.50;;;7.80;49.50;;;;;;10167866;28;20332;-56
2021/04/26 04:39:02;;;;;;;2.90;1.85;;;7.70;49.70;;;;;;10177362;28;20136;-55
2021/04/26 04:43:53;;;;;;;4.68;1.50;;;7.80;49.10;;;;;;10183565;28;20056;-56
2021/04/26 04:48:44;;;;;;;4.70;1.45;;;7.80;49.00;;;;;;10139197;28;20036;-56
2021/04/26 04:53:35;;;;;;;6.45;2.67;;;7.90;48.90;;;;;;10139157;28;20070;-57
2021/04/26 04:58:26;;;;;;;3.08;2.15;;;7.80;48.90;;;;;;10120104;28;20111;-59
2021/04/26 05:03:17;;;;;;;5.85;1.63;;;7.80;49.30;;;;;;10136764;28;20183;-58
2021/04/26 05:08:07;;;;;;;2.63;1.65;;;7.90;49.70;;;;;;10133621;28;20497;-53
2021/04/26 05:12:58;;;;;;;3.80;1.92;;;7.80;49.20;;;;;;10138298;28;20069;-56
2021/04/26 05:17:51;;;;;;;2.92;2.10;;;7.90;49.70;;;;;;10136628;28;20100;-54
2021/04/26 05:22:42;;;;;;;4.72;2.40;;;8.00;49.60;;;;;;10137746;28;20044;-56
2021/04/26 05:27:32;;;;;;;3.20;1.80;;;8.00;49.90;;;;;;10124783;28;20032;-60
2021/04/26 05:32:23;;;;;;;4.90;2.40;;;8.00;50.00;;;;;;10148214;28;20093;-58
2021/04/26 05:37:14;;;;;;;3.08;2.10;;;7.90;50.30;;;;;;10125961;28;20599;-58
2021/04/26 05:42:05;;;;;;;4.50;1.58;;;8.10;50.00;;;;;;10143318;28;20016;-58
2021/04/26 05:46:56;;;;;;;3.05;1.67;;;8.10;49.80;;;;;;10143906;28;20055;-54
2021/04/26 05:51:47;;;;;;;2.95;1.92;;;8.10;50.00;;;;;;10125976;28;20626;-54
2021/04/26 05:56:37;;;;;;;2.88;1.90;;;8.10;50.40;;;;;;10147487;28;20043;-57
2021/04/26 06:01:28;;;;;;;4.68;2.47;;;8.10;50.70;;;;;;10148279;28;20066;-61
2021/04/26 06:06:19;;;;;;;3.40;2.10;;;8.20;50.50;;;;;;10147034;28;20030;-57
2021/04/26 06:11:11;;;;;;;5.00;1.63;;;8.30;50.00;;;;;;10151041;28;20039;-53
2021/04/26 06:16:02;;;;;;;4.70;1.60;;;8.40;50.30;;;;;;10144392;28;20135;-59
2021/04/26 06:20:54;;;;;;;4.03;2.00;;;8.30;50.10;;;;;;10125982;28;20031;-56
2021/04/26 06:25:46;;;;;;;2.70;1.35;;;8.40;50.60;;;;;;10115658;28;20954;-58
2021/04/26 06:30:38;;;;;;;4.63;3.28;;;8.50;50.40;;;;;;10142041;28;20081;-59
2021/04/26 06:35:30;;;;;;;2.45;2.17;;;8.50;50.20;;;;;;10134519;28;20035;-56
2021/04/26 06:40:21;;;;;;;4.07;2.65;;;8.70;50.30;;;;;;10135552;28;20277;-50
2021/04/26 06:45:12;;;;;;;2.47;1.92;;;8.70;50.10;;;;;;10158268;28;20054;-52
2021/04/26 06:50:04;;;;;;;2.97;1.95;;;8.70;50.30;;;;;;10176057;27;20036;-61
2021/04/26 06:54:55;;;;;;;4.25;2.00;;;8.80;49.90;;;;;;10185934;27;20040;-51
2021/04/26 06:59:46;;;;;;;4.82;3.33;;;8.90;50.10;;;;;;10171166;27;21417;-59
2021/04/26 07:04:37;;;;;;;5.75;2.65;;;9.00;50.00;;;;;;10162187;27;20027;-53
2021/04/26 07:09:28;;;;;;;4.38;2.05;;;9.30;49.10;;;;;;10164808;27;20059;-54
2021/04/26 07:14:19;;;;;;;5.38;2.30;;;9.50;48.40;;;;;;10170637;27;20970;-52
2021/04/26 07:19:10;;;;;;;5.68;2.42;;;9.70;48.40;;;;;;10163635;27;20032;-54
2021/04/26 07:24:01;;;;;;;4.60;2.67;;;9.80;48.00;;;;;;10170720;27;20035;-52
2021/04/26 07:28:52;;;;;;;6.47;2.83;;;9.90;48.10;;;;;;10123422;28;20031;-55
2021/04/26 07:33:43;;;;;;;8.48;2.45;;;9.90;47.80;;;;;;10170860;27;20790;-53
2021/04/26 07:38:34;;;;;;;6.13;2.28;;;10.20;47.40;;;;;;10149301;27;20042;-50
2021/04/26 07:43:25;;;;;;;5.15;2.40;;;10.10;47.60;;;;;;10161657;27;20532;-52
2021/04/26 07:48:16;;;;;;;7.07;2.45;;;10.10;47.60;;;;;;10158069;27;20030;-57
2021/04/26 07:53:08;;;;;;;4.60;2.45;;;10.20;47.30;;;;;;10152448;27;20142;-60
2021/04/26 07:57:59;;;;;;;5.85;2.80;;;10.30;47.10;;;;;;10168534;27;20443;-51
2021/04/26 08:02:49;;;;;;;3.85;2.05;;;10.40;47.10;;;;;;10161134;28;20036;-55
2021/04/26 08:07:40;;;;;;;5.78;2.83;;;10.70;46.50;;;;;;10182935;27;20089;-56
2021/04/26 08:12:33;;;;;;;4.00;2.20;;;10.80;46.20;;;;;;10172491;28;20589;-52
2021/04/26 08:17:23;;;;;;;6.22;2.47;;;10.90;46.00;;;;;;10174854;28;20745;-55
2021/04/26 08:22:14;;;;;;;6.82;3.05;;;11.10;45.70;;;;;;10166422;28;20094;-59
2021/04/26 08:27:05;;;;;;;76.80;45.85;;;11.20;45.50;;;;;;10172226;28;20055;-55
2021/04/26 08:31:56;;;;;;;12.88;8.20;;;11.60;44.80;;;;;;10150352;28;20127;-50
2021/04/26 08:36:48;;;;;;;9.00;4.35;;;11.60;44.70;;;;;;10175070;28;20735;-51
2021/04/26 08:41:42;;;;;;;6.07;3.10;;;11.40;44.90;;;;;;10149743;28;20036;-52
2021/04/26 08:46:33;;;;;;;3.80;3.30;;;11.50;44.90;;;;;;10142538;28;20565;-49
2021/04/26 08:51:24;;;;;;;3.83;2.65;;;11.70;44.50;;;;;;10162956;28;20040;-53
2021/04/26 08:56:15;;;;;;;4.47;2.70;;;11.80;44.30;;;;;;10158176;28;20123;-54
2021/04/26 09:01:06;;;;;;;2.88;2.13;;;11.80;44.10;;;;;;10156527;28;20493;-60
2021/04/26 09:05:57;;;;;;;4.57;2.45;;;12.00;43.90;;;;;;10167667;27;20077;-62
2021/04/26 09:10:52;;;;;;;6.20;2.85;;;12.00;43.80;;;;;;10167844;27;20031;-61
2021/04/26 09:15:51;;;;;;;4.97;2.57;;;12.00;43.50;;;;;;10168944;27;20474;-59
2021/04/26 09:20:42;;;;;;;6.22;2.47;;;12.20;43.60;;;;;;10167029;27;20301;-59
2021/04/26 09:25:42;;;;;;;7.15;3.85;;;12.30;43.20;;;;;;10162833;27;20705;-62
2021/04/26 09:30:46;;;;;;;10.13;3.45;;;12.40;42.70;;;;;;10158421;27;20493;-60
2021/04/26 09:35:37;;;;;;;7.22;3.97;;;12.60;42.50;;;;;;10161870;27;20040;-58
2021/04/26 09:40:28;;;;;;;7.18;2.58;;;12.70;42.30;;;;;;10142454;27;20466;-59
2021/04/26 09:45:33;;;;;;;3.55;2.40;;;12.70;41.80;;;;;;10133754;27;20682;-58
2021/04/26 09:50:23;;;;;;;5.70;3.73;;;13.20;41.70;;;;;;10164906;27;21829;-59
2021/04/26 09:55:31;;;;;;;40.35;23.98;;;13.10;41.50;;;;;;10140446;27;20452;-58
2021/04/26 10:00:22;;;;;;;25.42;14.00;;;13.10;41.40;;;;;;10157423;27;20031;-58
2021/04/26 10:05:14;;;;;;;10.07;5.22;;;13.40;41.20;;;;;;10158572;27;20128;-58
2021/04/26 10:10:05;;;;;;;32.40;16.70;;;13.50;40.90;;;;;;10154005;27;21275;-54
2021/04/26 10:14:57;;;;;;;11.88;4.80;;;13.60;41.00;;;;;;10154827;27;20106;-60
2021/04/26 10:19:50;;;;;;;10.48;4.40;;;13.90;40.20;;;;;;10149568;27;20053;-57
2021/04/26 10:24:55;;;;;;;6.43;3.33;;;13.90;40.30;;;;;;10157668;27;20148;-60
2021/04/26 10:30:17;;;;;;;5.30;2.53;;;13.90;39.60;;;;;;10136514;28;20035;-59
2021/04/26 10:35:10;;;;;;;5.32;3.17;;;14.00;39.70;;;;;;10156988;27;20683;-59
2021/04/26 10:40:06;;;;;;;6.53;3.78;;;14.00;39.90;;;;;;10141760;27;20036;-56
2021/04/26 10:44:57;;;;;;;5.45;3.05;;;14.10;39.60;;;;;;10150338;27;20721;-58
2021/04/26 10:49:51;;;;;;;4.45;2.75;;;14.20;39.40;;;;;;10119531;27;20074;-55
2021/04/26 10:54:42;;;;;;;7.80;3.35;;;14.40;39.30;;;;;;10151536;27;20286;-56
2021/04/26 10:59:33;;;;;;;8.30;4.30;;;14.50;39.00;;;;;;10124144;27;20023;-60
2021/04/26 11:04:24;;;;;;;5.40;3.08;;;14.70;38.70;;;;;;10152955;27;20024;-59
2021/04/26 11:09:41;;;;;;;4.35;2.88;;;14.70;38.60;;;;;;10150794;27;20285;-59
2021/04/26 11:14:32;;;;;;;5.43;2.78;;;14.70;38.30;;;;;;10158409;27;20613;-59
2021/04/26 11:19:23;;;;;;;5.85;3.83;;;14.80;38.40;;;;;;10151721;27;20773;-62
2021/04/26 11:24:25;;;;;;;7.93;3.00;;;15.00;38.10;;;;;;10155360;27;20428;-61
2021/04/26 11:29:16;;;;;;;4.53;2.83;;;15.10;37.50;;;;;;10157475;27;20425;-60
2021/04/26 11:34:15;;;;;;;4.63;3.08;;;15.20;37.50;;;;;;10156023;27;20043;-59
2021/04/26 11:39:07;;;;;;;6.28;3.10;;;15.30;37.20;;;;;;10159876;27;20028;-60
2021/04/26 11:43:58;;;;;;;6.05;3.30;;;15.50;37.20;;;;;;10152367;27;20051;-59
2021/04/26 11:48:49;;;;;;;5.30;2.88;;;15.70;36.70;;;;;;10145465;27;20039;-61
2021/04/26 11:53:43;;;;;;;7.40;3.08;;;15.70;36.30;;;;;;10162619;27;20070;-61
2021/04/26 11:58:33;;;;;;;8.70;3.90;;;15.80;36.30;;;;;;10150360;27;20036;-64
2021/04/26 12:03:24;;;;;;;10.68;3.88;;;16.20;36.10;;;;;;10160689;27;20626;-60
2021/04/26 12:08:15;;;;;;;4.00;2.88;;;16.40;35.70;;;;;;10169624;27;20035;-60
2021/04/26 12:13:08;;;;;;;5.22;2.65;;;16.40;35.40;;;;;;10144276;27;20065;-60
2021/04/26 12:18:00;;;;;;;4.38;3.17;;;16.70;35.10;;;;;;10154500;28;20046;-59
2021/04/26 12:22:58;;;;;;;5.40;2.80;;;17.00;35.00;;;;;;10161061;28;20108;-59
2021/04/26 12:28:04;;;;;;;6.43;3.15;;;17.30;34.40;;;;;;10162645;28;20169;-65
2021/04/26 12:32:57;;;;;;;5.35;3.13;;;17.60;33.60;;;;;;10157334;28;20028;-58
2021/04/26 12:37:50;;;;;;;5.65;3.20;;;18.00;34.20;;;;;;10156145;27;20504;-58
2021/04/26 12:42:42;;;;;;;6.93;3.08;;;18.20;33.70;;;;;;10162663;27;20065;-57
2021/04/26 12:47:32;;;;;;;5.72;3.58;;;18.50;33.60;;;;;;10154804;27;20058;-62
2021/04/26 12:52:23;;;;;;;7.05;3.75;;;18.80;33.30;;;;;;10172275;27;21045;-59
2021/04/26 12:57:23;;;;;;;8.80;3.38;;;19.20;32.90;;;;;;10166498;27;20536;-59
2021/04/26 13:02:28;;;;;;;5.10;2.95;;;19.80;31.20;;;;;;10168447;27;20091;-60
2021/04/26 13:07:20;;;;;;;4.22;2.88;;;20.70;31.20;;;;;;10164664;27;21261;-59
2021/04/26 13:12:11;;;;;;;6.32;3.10;;;21.20;30.30;;;;;;10170311;27;20031;-64
2021/04/26 13:17:09;;;;;;;4.50;3.20;;;22.40;29.40;;;;;;10165462;27;20134;-59
2021/04/26 13:22:00;;;;;;;5.07;3.50;;;23.20;27.90;;;;;;10157858;27;20047;-60
2021/04/26 13:27:08;;;;;;;6.38;3.42;;;23.90;27.30;;;;;;10160313;27;20109;-58
2021/04/26 13:32:05;;;;;;;6.72;3.20;;;24.10;25.80;;;;;;10165500;27;20070;-62
2021/04/26 13:36:57;;;;;;;5.07;3.50;;;24.30;25.30;;;;;;10182077;27;20046;-59
2021/04/26 13:41:50;;;;;;;6.38;3.08;;;25.20;25.10;;;;;;10180941;27;20404;-58
2021/04/26 13:46:42;;;;;;;3.50;2.47;;;25.60;24.80;;;;;;10179102;27;20047;-60
2021/04/26 13:51:33;;;;;;;4.83;2.80;;;25.90;24.20;;;;;;10177408;27;20394;-58
2021/04/26 13:56:24;;;;;;;9.45;3.40;;;26.00;24.20;;;;;;10183586;27;20023;-59
2021/04/26 14:01:15;;;;;;;5.82;3.17;;;26.60;23.60;;;;;;10182749;27;20451;-57
2021/04/26 14:06:08;;;;;;;5.22;3.05;;;26.80;23.40;;;;;;10181389;27;20096;-63
2021/04/26 14:10:59;;;;;;;6.10;2.72;;;26.80;23.30;;;;;;10182437;27;20524;-56
2021/04/26 14:15:50;;;;;;;5.45;2.83;;;26.60;23.10;;;;;;10164421;27;20188;-59
2021/04/26 14:20:41;;;;;;;4.13;3.13;;;25.80;22.80;;;;;;10177213;27;20833;-59
2021/04/26 14:25:32;;;;;;;9.05;5.43;;;26.30;22.90;;;;;;10152472;27;20055;-59
2021/04/26 14:30:23;;;;;;;21.55;14.68;;;26.20;22.80;;;;;;10161587;27;20035;-60
2021/04/26 14:35:14;;;;;;;6.80;4.22;;;26.60;23.00;;;;;;10164502;27;20062;-59
2021/04/26 14:40:06;;;;;;;8.00;3.10;;;26.40;22.70;;;;;;10177030;27;20834;-59
2021/04/26 14:44:56;;;;;;;3.50;2.78;;;25.60;22.40;;;;;;10153695;27;20059;-56
2021/04/26 14:49:47;;;;;;;4.00;2.28;;;25.40;22.40;;;;;;10179804;27;20035;-60
2021/04/26 14:54:38;;;;;;;5.60;3.22;;;25.60;22.40;;;;;;10183270;27;20512;-59
2021/04/26 14:59:29;;;;;;;5.63;2.80;;;26.00;22.30;;;;;;10179837;27;20460;-58
2021/04/26 15:04:27;;;;;;;5.10;2.97;;;25.80;21.90;;;;;;10159608;27;20065;-63
2021/04/26 15:09:18;;;;;;;4.13;3.08;;;25.40;22.20;;;;;;10173959;27;20426;-61
2021/04/26 15:14:09;;;;;;;3.80;2.80;;;25.50;22.20;;;;;;10156859;27;20058;-64
2021/04/26 15:18:59;;;;;;;4.35;2.63;;;25.10;22.00;;;;;;10175099;27;20043;-61
2021/04/26 15:23:50;;;;;;;3.08;2.42;;;25.20;21.80;;;;;;10178089;27;20129;-61
2021/04/26 15:28:41;;;;;;;5.25;3.00;;;25.40;21.50;;;;;;10178629;27;20046;-59
2021/04/26 15:33:32;;;;;;;4.22;3.40;;;25.10;21.50;;;;;;10182571;27;20031;-59
2021/04/26 15:38:23;;;;;;;4.47;2.95;;;25.00;21.30;;;;;;10167445;27;20376;-61
2021/04/26 15:43:16;;;;;;;6.57;3.40;;;25.70;21.10;;;;;;10187637;27;20045;-60
2021/04/26 15:48:09;;;;;;;5.60;2.50;;;25.80;20.80;;;;;;10187513;27;21416;-60
2021/04/26 15:53:00;;;;;;;4.68;2.55;;;26.20;20.80;;;;;;10188699;27;20614;-61
2021/04/26 15:57:51;;;;;;;5.97;2.50;;;27.10;20.50;;;;;;10190549;27;20038;-60
2021/04/26 16:02:42;;;;;;;4.90;2.60;;;27.10;20.00;;;;;;10190563;27;20046;-61
2021/04/26 16:07:33;;;;;;;3.20;2.22;;;26.80;19.70;;;;;;10192457;27;20032;-61
2021/04/26 16:12:24;;;;;;;4.53;2.33;;;28.10;19.60;;;;;;10187073;27;20068;-61
2021/04/26 16:17:15;;;;;;;4.88;2.40;;;28.60;19.20;;;;;;10192448;27;21526;-59
2021/04/26 16:22:06;;;;;;;3.10;2.15;;;29.40;19.00;;;;;;10186713;28;20036;-61
2021/04/26 16:26:59;;;;;;;7.05;2.80;;;28.70;18.70;;;;;;10189787;28;20034;-59
2021/04/26 16:31:50;;;;;;;6.32;2.95;;;29.10;18.80;;;;;;10192019;28;20039;-61
2021/04/26 16:36:41;;;;;;;5.20;2.40;;;30.30;18.50;;;;;;10192065;28;20087;-61
2021/04/26 16:41:32;;;;;;;5.10;2.47;;;29.90;18.20;;;;;;10194141;28;21072;-58
2021/04/26 16:46:23;;;;;;;6.50;2.00;;;29.10;18.40;;;;;;10181924;28;20052;-60
2021/04/26 16:51:14;;;;;;;3.42;2.50;;;29.20;18.20;;;;;;10162286;28;20066;-63
2021/04/26 16:56:06;;;;;;;4.07;2.28;;;28.80;18.30;;;;;;10164355;28;20034;-60
2021/04/26 17:00:57;;;;;;;3.38;2.30;;;28.90;18.40;;;;;;10164502;28;20529;-60
2021/04/26 17:05:51;;;;;;;3.35;1.83;;;29.80;18.40;;;;;;10167689;28;20059;-60
2021/04/26 17:10:45;;;;;;;4.07;2.35;;;30.60;18.10;;;;;;10146421;28;20031;-61
2021/04/26 17:15:37;;;;;;;8.35;4.90;;;29.50;17.90;;;;;;10173183;28;20038;-62
2021/04/26 17:20:28;;;;;;;6.53;2.90;;;29.30;17.90;;;;;;10188722;28;20053;-59
2021/04/26 17:25:19;;;;;;;4.70;2.30;;;27.80;18.00;;;;;;10196861;27;20567;-61
2021/04/26 17:30:11;;;;;;;4.85;1.90;;;25.20;19.00;;;;;;10182689;27;20069;-58
2021/04/26 17:35:04;;;;;;;4.60;2.42;;;22.50;20.80;;;;;;10200928;27;20397;-56
2021/04/26 17:39:55;;;;;;;4.85;2.15;;;20.60;21.90;;;;;;10195306;27;20031;-60
2021/04/26 17:44:48;;;;;;;3.80;2.30;;;19.70;22.50;;;;;;10191284;27;20047;-60
2021/04/26 17:49:38;;;;;;;5.35;2.03;;;19.30;22.90;;;;;;10180632;27;20095;-60
2021/04/26 17:54:29;;;;;;;6.40;2.00;;;18.90;23.00;;;;;;10180749;27;20031;-61
2021/04/26 17:59:20;;;;;;;3.47;2.15;;;18.70;23.40;;;;;;10175871;27;20616;-63
2021/04/26 18:04:10;;;;;;;2.25;1.75;;;18.60;23.80;;;;;;10182502;27;20629;-58
2021/04/26 18:09:02;;;;;;;6.60;1.73;;;18.40;23.60;;;;;;10189997;27;20465;-60
2021/04/26 18:13:53;;;;;;;3.78;1.90;;;18.50;23.90;;;;;;10176784;27;20034;-64
2021/04/26 18:18:44;;;;;;;2.63;1.67;;;18.10;24.00;;;;;;10176733;27;20038;-57
2021/04/26 18:23:39;;;;;;;1.52;1.42;;;18.00;24.00;;;;;;10178511;27;20046;-63
2021/04/26 18:28:30;;;;;;;5.97;2.08;;;17.80;24.20;;;;;;10179989;27;20273;-60
2021/04/26 18:33:21;;;;;;;3.00;1.80;;;17.70;24.20;;;;;;10178450;27;20304;-56
2021/04/26 18:38:12;;;;;;;1.42;1.10;;;17.60;24.30;;;;;;10180967;27;20034;-61
2021/04/26 18:43:02;;;;;;;3.35;1.67;;;17.50;24.30;;;;;;10179202;27;20076;-57
2021/04/26 18:47:54;;;;;;;5.68;1.55;;;17.40;24.40;;;;;;10180910;27;20574;-59
2021/04/26 18:52:45;;;;;;;2.28;1.67;;;17.30;24.50;;;;;;10182059;27;21324;-59
2021/04/26 18:57:37;;;;;;;2.35;1.90;;;17.20;24.50;;;;;;10174156;27;20031;-57
2021/04/26 19:02:28;;;;;;;2.58;1.42;;;17.10;24.60;;;;;;10177166;27;20124;-56
2021/04/26 19:07:19;;;;;;;3.13;1.60;;;17.10;24.50;;;;;;10174357;27;20604;-56
2021/04/26 19:12:10;;;;;;;2.92;2.00;;;16.90;24.70;;;;;;10181436;27;20027;-60
2021/04/26 19:17:02;;;;;;;1.95;1.50;;;16.90;24.70;;;;;;10177512;27;20593;-60
2021/04/26 19:21:53;;;;;;;3.30;1.58;;;16.70;24.80;;;;;;10179224;27;20035;-57
2021/04/26 19:26:43;;;;;;;3.50;1.63;;;16.60;24.90;;;;;;10166081;27;20031;-59
2021/04/26 19:31:36;;;;;;;1.88;1.65;;;16.60;25.00;;;;;;10159702;27;20068;-59
2021/04/26 19:36:27;;;;;;;2.85;1.48;;;16.40;25.10;;;;;;10162283;27;20035;-60
2021/04/26 19:41:19;;;;;;;2.00;1.33;;;16.30;25.40;;;;;;10176604;27;20027;-57
2021/04/26 19:46:12;;;;;;;4.82;1.67;;;16.20;25.50;;;;;;10172176;27;20051;-54
2021/04/26 19:51:03;;;;;;;4.13;2.17;;;16.20;25.40;;;;;;10170874;27;20028;-54
2021/04/26 19:55:54;;;;;;;4.20;2.05;;;16.20;25.40;;;;;;10174043;27;20032;-62
2021/04/26 20:00:45;;;;;;;2.75;1.55;;;16.10;25.50;;;;;;10174188;27;21057;-55
2021/04/26 20:05:36;;;;;;;2.60;1.50;;;16.10;25.80;;;;;;10177694;27;20850;-57
2021/04/26 20:10:26;;;;;;;2.00;1.38;;;15.90;25.90;;;;;;10178748;27;20027;-59
2021/04/26 20:15:18;;;;;;;3.92;1.52;;;15.90;26.10;;;;;;10173731;27;20050;-56
2021/04/26 20:20:11;;;;;;;3.10;1.60;;;15.80;26.40;;;;;;10173896;27;20047;-56
2021/04/26 20:25:03;;;;;;;3.00;1.67;;;15.90;26.20;;;;;;10167190;27;20066;-53
2021/04/26 20:29:53;;;;;;;39.50;20.48;;;15.60;26.50;;;;;;10170295;28;20122;-59
2021/04/26 20:34:44;;;;;;;6.50;3.58;;;15.70;26.50;;;;;;10170332;28;20023;-54
2021/04/26 20:39:36;;;;;;;2.67;1.60;;;15.70;26.60;;;;;;10176498;28;20673;-56
2021/04/26 20:44:27;;;;;;;2.47;1.77;;;15.60;26.70;;;;;;10170012;28;20105;-55
2021/04/26 20:49:18;;;;;;;1.50;1.35;;;15.50;26.70;;;;;;10168641;28;20031;-55
2021/04/26 20:54:08;;;;;;;2.65;1.70;;;15.40;26.70;;;;;;10179275;28;20428;-54
2021/04/26 20:59:00;;;;;;;4.20;1.52;;;15.30;26.90;;;;;;10170903;27;20027;-57
2021/04/26 21:03:50;;;;;;;2.20;1.40;;;15.30;26.90;;;;;;10165099;27;20047;-57
2021/04/26 21:08:41;;;;;;;2.58;1.33;;;15.20;27.10;;;;;;10173256;27;20084;-56
2021/04/26 21:13:32;;;;;;;4.80;2.33;;;15.20;27.10;;;;;;10180725;27;20027;-59
2021/04/26 21:18:22;;;;;;;4.65;1.42;;;15.00;27.30;;;;;;10185744;27;20027;-55
2021/04/26 21:23:13;;;;;;;4.43;1.42;;;14.90;27.50;;;;;;10181895;27;20473;-54
2021/04/26 21:28:04;;;;;;;1.70;1.20;;;14.80;27.60;;;;;;10178012;27;20032;-56
2021/04/26 21:32:54;;;;;;;3.28;1.17;;;14.70;27.70;;;;;;10178799;27;20030;-55
2021/04/26 21:37:45;;;;;;;2.78;1.40;;;14.60;27.70;;;;;;10170401;27;20023;-55
2021/04/26 21:42:36;;;;;;;1.08;1.05;;;14.50;27.80;;;;;;10173515;27;20039;-58
2021/04/26 21:47:27;;;;;;;14.25;5.28;;;14.40;27.90;;;;;;10188120;27;20058;-59
2021/04/26 21:52:18;;;;;;;5.25;1.50;;;14.30;28.00;;;;;;10179547;27;20036;-59
2021/04/26 21:57:08;;;;;;;4.28;1.65;;;14.30;28.00;;;;;;10169359;27;20027;-55
2021/04/26 22:01:59;;;;;;;3.80;1.17;;;14.10;28.10;;;;;;10168801;27;20031;-54
2021/04/26 22:06:50;;;;;;;0.80;0.80;;;14.00;28.50;;;;;;10178019;27;20050;-55
2021/04/26 22:11:41;;;;;;;1.65;0.98;;;13.90;29.10;;;;;;10165176;27;20073;-55
2021/04/26 22:16:32;;;;;;;1.65;1.02;;;13.90;28.40;;;;;;10179831;27;20031;-53
2021/04/26 22:21:23;;;;;;;0.77;0.77;;;13.90;28.50;;;;;;10185704;27;20039;-58
2021/04/26 22:26:15;;;;;;;1.33;0.90;;;13.80;28.50;;;;;;10166132;27;20406;-60
2021/04/26 22:31:06;;;;;;;2.65;1.05;;;13.70;28.50;;;;;;10181001;27;20027;-54
2021/04/26 22:35:57;;;;;;;2.80;1.08;;;13.60;28.50;;;;;;10161666;27;20099;-53
2021/04/26 22:40:48;;;;;;;1.35;1.20;;;13.50;28.70;;;;;;10175550;27;20111;-61
2021/04/26 22:45:39;;;;;;;1.63;0.95;;;13.50;28.60;;;;;;10183871;27;20051;-55
2021/04/26 22:50:30;;;;;;;2.10;1.23;;;13.40;28.60;;;;;;10168142;27;20050;-56
2021/04/26 22:55:24;;;;;;;2.72;1.30;;;13.30;28.90;;;;;;10173661;27;20118;-55
2021/04/26 23:00:19;;;;;;;3.10;1.02;;;13.20;28.90;;;;;;10173420;27;20076;-57
2021/04/26 23:05:10;;;;;;;1.52;0.95;;;13.20;28.70;;;;;;10184700;27;20031;-54
2021/04/26 23:10:04;;;;;;;3.45;1.20;;;13.10;28.90;;;;;;10174682;27;20088;-54
2021/04/26 23:14:55;;;;;;;1.50;0.90;;;13.10;28.80;;;;;;10170739;27;20398;-56
2021/04/26 23:19:45;;;;;;;1.40;0.95;;;13.00;28.90;;;;;;10179481;27;20077;-54
2021/04/26 23:24:36;;;;;;;2.38;1.10;;;13.00;28.90;;;;;;10177252;27;20063;-56
2021/04/26 23:29:27;;;;;;;2.55;1.10;;;12.90;28.90;;;;;;10180621;27;20031;-54
2021/04/26 23:34:18;;;;;;;1.30;1.10;;;12.80;29.00;;;;;;10166112;27;20030;-56
2021/04/26 23:39:09;;;;;;;1.70;1.17;;;12.70;29.20;;;;;;10170147;27;20341;-59
2021/04/26 23:44:00;;;;;;;2.35;1.20;;;12.70;29.30;;;;;;10166054;27;20482;-53
2021/04/26 23:48:50;;;;;;;1.63;0.90;;;12.60;29.30;;;;;;10163957;27;20547;-57
2021/04/26 23:53:41;;;;;;;1.45;0.85;;;12.60;29.30;;;;;;10168938;27;20031;-56
2021/04/26 23:58:32;;;;;;;1.70;1.58;;;12.40;29.30;;;;;;10191213;27;20046;-55
